sensor_id;sensor_type;location;lat;lon;timestamp;temperature;humidity
13835;DHT22;6988;52.614;13.500;2022-07-12T00:03:47;15.20;99.90
13835;DHT22;6988;52.614;13.500;2022-07-12T00:08:38;15.00;99.90
13835;DHT22;6988;52.614;13.500;2022-07-12T00:13:31;15.00;99.90
13835;DHT22;6988;52.614;13.500;2022-07-12T00:18:24;14.90;99.90
13835;DHT22;6988;52.614;13.500;2022-07-12T00:23:16;14.90;99.90
13835;DHT22;6988;52.614;13.500;2022-07-12T00:28:09;14.90;99.90
13835;DHT22;6988;52.614;13.500;2022-07-12T00:33:00;14.80;99.90
13835;DHT22;6988;52.614;13.500;2022-07-12T00:37:53;14.80;99.90
13835;DHT22;6988;52.614;13.500;2022-07-12T00:42:45;14.60;99.90
13835;DHT22;6988;52.614;13.500;2022-07-12T00:47:38;14.40;99.90
13835;DHT22;6988;52.614;13.500;2022-07-12T00:52:35;14.20;99.90
13835;DHT22;6988;52.614;13.500;2022-07-12T00:57:29;14.10;99.90
13835;DHT22;6988;52.614;13.500;2022-07-12T01:02:22;13.90;99.90
13835;DHT22;6988;52.614;13.500;2022-07-12T01:07:14;13.70;99.90
13835;DHT22;6988;52.614;13.500;2022-07-12T01:12:07;13.60;99.90
13835;DHT22;6988;52.614;13.500;2022-07-12T01:17:02;13.50;99.90
13835;DHT22;6988;52.614;13.500;2022-07-12T01:21:56;13.40;99.90
13835;DHT22;6988;52.614;13.500;2022-07-12T01:26:52;13.40;99.90
13835;DHT22;6988;52.614;13.500;2022-07-12T01:31:45;13.30;99.90
13835;DHT22;6988;52.614;13.500;2022-07-12T01:36:38;13.30;99.90
13835;DHT22;6988;52.614;13.500;2022-07-12T01:41:31;13.20;99.90
13835;DHT22;6988;52.614;13.500;2022-07-12T01:46:24;13.00;99.90
13835;DHT22;6988;52.614;13.500;2022-07-12T01:51:16;12.90;99.90
13835;DHT22;6988;52.614;13.500;2022-07-12T01:56:08;12.80;99.90
13835;DHT22;6988;52.614;13.500;2022-07-12T02:01:00;12.70;99.90
13835;DHT22;6988;52.614;13.500;2022-07-12T02:05:53;12.60;99.90
13835;DHT22;6988;52.614;13.500;2022-07-12T02:10:45;12.60;99.90
13835;DHT22;6988;52.614;13.500;2022-07-12T02:15:36;12.60;99.90
13835;DHT22;6988;52.614;13.500;2022-07-12T02:20:28;12.60;99.90
13835;DHT22;6988;52.614;13.500;2022-07-12T02:25:21;12.40;99.90
13835;DHT22;6988;52.614;13.500;2022-07-12T02:30:13;12.50;99.90
13835;DHT22;6988;52.614;13.500;2022-07-12T02:35:05;12.30;99.90
13835;DHT22;6988;52.614;13.500;2022-07-12T02:39:58;12.30;99.90
13835;DHT22;6988;52.614;13.500;2022-07-12T02:45:06;12.20;99.90
13835;DHT22;6988;52.614;13.500;2022-07-12T02:49:58;12.10;99.90
13835;DHT22;6988;52.614;13.500;2022-07-12T02:54:50;12.00;99.90
13835;DHT22;6988;52.614;13.500;2022-07-12T02:59:42;12.00;99.90
13835;DHT22;6988;52.614;13.500;2022-07-12T03:04:35;11.80;99.90
13835;DHT22;6988;52.614;13.500;2022-07-12T03:09:26;11.80;99.90
13835;DHT22;6988;52.614;13.500;2022-07-12T03:14:18;11.80;99.90
13835;DHT22;6988;52.614;13.500;2022-07-12T03:19:10;11.80;99.90
13835;DHT22;6988;52.614;13.500;2022-07-12T03:24:03;11.80;99.90
13835;DHT22;6988;52.614;13.500;2022-07-12T03:28:55;11.90;99.90
13835;DHT22;6988;52.614;13.500;2022-07-12T03:33:47;11.90;99.90
13835;DHT22;6988;52.614;13.500;2022-07-12T03:38:38;12.00;99.90
13835;DHT22;6988;52.614;13.500;2022-07-12T03:43:31;12.00;99.90
13835;DHT22;6988;52.614;13.500;2022-07-12T03:48:23;12.00;99.90
13835;DHT22;6988;52.614;13.500;2022-07-12T03:53:15;12.10;99.90
13835;DHT22;6988;52.614;13.500;2022-07-12T03:58:07;12.10;99.90
13835;DHT22;6988;52.614;13.500;2022-07-12T04:03:00;12.20;99.90
13835;DHT22;6988;52.614;13.500;2022-07-12T04:07:52;12.20;99.90
13835;DHT22;6988;52.614;13.500;2022-07-12T04:12:44;12.30;99.90
13835;DHT22;6988;52.614;13.500;2022-07-12T04:17:37;12.30;99.90
13835;DHT22;6988;52.614;13.500;2022-07-12T04:22:30;12.30;99.90
13835;DHT22;6988;52.614;13.500;2022-07-12T04:27:22;12.50;99.90
13835;DHT22;6988;52.614;13.500;2022-07-12T04:32:16;12.60;99.90
13835;DHT22;6988;52.614;13.500;2022-07-12T04:37:08;12.80;99.90
13835;DHT22;6988;52.614;13.500;2022-07-12T04:42:01;13.00;99.90
13835;DHT22;6988;52.614;13.500;2022-07-12T04:46:53;13.20;99.90
13835;DHT22;6988;52.614;13.500;2022-07-12T04:51:45;13.50;99.90
13835;DHT22;6988;52.614;13.500;2022-07-12T04:56:36;13.90;99.90
13835;DHT22;6988;52.614;13.500;2022-07-12T05:01:30;13.80;99.90
13835;DHT22;6988;52.614;13.500;2022-07-12T05:06:22;14.20;99.90
13835;DHT22;6988;52.614;13.500;2022-07-12T05:11:14;14.30;99.90
13835;DHT22;6988;52.614;13.500;2022-07-12T05:16:06;14.30;99.90
13835;DHT22;6988;52.614;13.500;2022-07-12T05:21:00;14.70;99.90
13835;DHT22;6988;52.614;13.500;2022-07-12T05:25:52;14.90;99.90
13835;DHT22;6988;52.614;13.500;2022-07-12T05:30:44;15.10;99.90
13835;DHT22;6988;52.614;13.500;2022-07-12T05:35:36;15.20;99.90
13835;DHT22;6988;52.614;13.500;2022-07-12T05:40:29;15.40;99.90
13835;DHT22;6988;52.614;13.500;2022-07-12T05:45:21;15.50;99.90
13835;DHT22;6988;52.614;13.500;2022-07-12T05:50:13;15.70;99.90
13835;DHT22;6988;52.614;13.500;2022-07-12T05:55:05;16.00;99.90
13835;DHT22;6988;52.614;13.500;2022-07-12T05:59:59;16.20;99.90
13835;DHT22;6988;52.614;13.500;2022-07-12T06:04:50;16.40;99.90
13835;DHT22;6988;52.614;13.500;2022-07-12T06:09:42;16.60;99.90
13835;DHT22;6988;52.614;13.500;2022-07-12T06:14:34;16.90;99.90
13835;DHT22;6988;52.614;13.500;2022-07-12T06:19:28;17.00;99.90
13835;DHT22;6988;52.614;13.500;2022-07-12T06:24:20;17.40;99.90
13835;DHT22;6988;52.614;13.500;2022-07-12T06:29:12;17.70;99.90
13835;DHT22;6988;52.614;13.500;2022-07-12T06:34:03;18.20;99.90
13835;DHT22;6988;52.614;13.500;2022-07-12T06:38:56;18.80;99.90
13835;DHT22;6988;52.614;13.500;2022-07-12T06:43:48;19.20;99.90
13835;DHT22;6988;52.614;13.500;2022-07-12T06:48:40;19.70;99.90
13835;DHT22;6988;52.614;13.500;2022-07-12T06:53:32;20.10;99.90
13835;DHT22;6988;52.614;13.500;2022-07-12T06:58:25;20.40;99.90
13835;DHT22;6988;52.614;13.500;2022-07-12T07:03:16;20.80;99.90
13835;DHT22;6988;52.614;13.500;2022-07-12T07:08:08;21.10;99.90
13835;DHT22;6988;52.614;13.500;2022-07-12T07:13:00;21.50;99.90
13835;DHT22;6988;52.614;13.500;2022-07-12T07:17:53;21.80;99.90
13835;DHT22;6988;52.614;13.500;2022-07-12T07:22:45;22.20;99.90
13835;DHT22;6988;52.614;13.500;2022-07-12T07:27:38;22.50;99.90
13835;DHT22;6988;52.614;13.500;2022-07-12T07:32:29;22.70;99.90
13835;DHT22;6988;52.614;13.500;2022-07-12T07:37:23;22.90;99.90
13835;DHT22;6988;52.614;13.500;2022-07-12T07:42:15;23.10;99.90
13835;DHT22;6988;52.614;13.500;2022-07-12T07:47:06;23.30;99.90
13835;DHT22;6988;52.614;13.500;2022-07-12T07:51:58;23.50;99.90
13835;DHT22;6988;52.614;13.500;2022-07-12T07:56:51;23.70;99.90
13835;DHT22;6988;52.614;13.500;2022-07-12T08:01:43;24.20;99.90
13835;DHT22;6988;52.614;13.500;2022-07-12T08:06:36;24.40;99.90
13835;DHT22;6988;52.614;13.500;2022-07-12T08:11:28;24.70;99.90
13835;DHT22;6988;52.614;13.500;2022-07-12T08:16:21;24.70;99.90
13835;DHT22;6988;52.614;13.500;2022-07-12T08:21:12;24.90;99.90
13835;DHT22;6988;52.614;13.500;2022-07-12T08:26:04;25.00;99.90
13835;DHT22;6988;52.614;13.500;2022-07-12T08:30:56;25.20;99.90
13835;DHT22;6988;52.614;13.500;2022-07-12T08:35:55;25.60;99.90
13835;DHT22;6988;52.614;13.500;2022-07-12T08:40:47;25.70;99.90
13835;DHT22;6988;52.614;13.500;2022-07-12T08:45:39;25.80;99.90
13835;DHT22;6988;52.614;13.500;2022-07-12T08:50:31;25.80;99.90
13835;DHT22;6988;52.614;13.500;2022-07-12T08:55:27;26.20;99.90
13835;DHT22;6988;52.614;13.500;2022-07-12T09:00:21;26.60;99.90
13835;DHT22;6988;52.614;13.500;2022-07-12T09:05:14;26.90;99.90
13835;DHT22;6988;52.614;13.500;2022-07-12T09:10:08;27.00;99.90
13835;DHT22;6988;52.614;13.500;2022-07-12T09:15:16;27.20;99.80
13835;DHT22;6988;52.614;13.500;2022-07-12T09:20:10;27.50;99.90
13835;DHT22;6988;52.614;13.500;2022-07-12T09:25:08;27.80;98.60
13835;DHT22;6988;52.614;13.500;2022-07-12T09:30:10;28.10;98.20
13835;DHT22;6988;52.614;13.500;2022-07-12T09:35:04;28.40;97.20
13835;DHT22;6988;52.614;13.500;2022-07-12T09:40:14;28.40;96.20
13835;DHT22;6988;52.614;13.500;2022-07-12T09:45:07;27.70;96.10
13835;DHT22;6988;52.614;13.500;2022-07-12T09:50:02;27.50;96.20
13835;DHT22;6988;52.614;13.500;2022-07-12T09:54:57;28.10;95.60
13835;DHT22;6988;52.614;13.500;2022-07-12T09:59:53;28.40;95.80
13835;DHT22;6988;52.614;13.500;2022-07-12T10:04:46;27.40;95.30
13835;DHT22;6988;52.614;13.500;2022-07-12T10:09:40;27.40;97.10
13835;DHT22;6988;52.614;13.500;2022-07-12T10:14:34;27.80;94.80
13835;DHT22;6988;52.614;13.500;2022-07-12T10:19:29;28.00;96.20
13835;DHT22;6988;52.614;13.500;2022-07-12T10:24:49;28.70;95.30
13835;DHT22;6988;52.614;13.500;2022-07-12T10:29:46;28.90;93.20
13835;DHT22;6988;52.614;13.500;2022-07-12T10:34:39;28.90;93.80
13835;DHT22;6988;52.614;13.500;2022-07-12T10:39:31;29.40;93.20
13835;DHT22;6988;52.614;13.500;2022-07-12T10:44:35;29.40;93.30
13835;DHT22;6988;52.614;13.500;2022-07-12T10:49:29;29.10;93.20
13835;DHT22;6988;52.614;13.500;2022-07-12T10:54:22;28.80;93.40
13835;DHT22;6988;52.614;13.500;2022-07-12T10:59:14;29.40;93.50
13835;DHT22;6988;52.614;13.500;2022-07-12T11:04:08;30.40;92.00
13835;DHT22;6988;52.614;13.500;2022-07-12T11:09:03;30.00;91.40
13835;DHT22;6988;52.614;13.500;2022-07-12T11:13:56;29.60;92.50
13835;DHT22;6988;52.614;13.500;2022-07-12T11:18:49;28.90;91.60
13835;DHT22;6988;52.614;13.500;2022-07-12T11:23:43;29.00;91.00
13835;DHT22;6988;52.614;13.500;2022-07-12T11:28:35;29.00;91.00
13835;DHT22;6988;52.614;13.500;2022-07-12T11:33:30;28.70;92.20
13835;DHT22;6988;52.614;13.500;2022-07-12T11:38:24;28.90;90.80
13835;DHT22;6988;52.614;13.500;2022-07-12T11:43:20;29.30;90.80
13835;DHT22;6988;52.614;13.500;2022-07-12T11:48:13;29.10;91.10
13835;DHT22;6988;52.614;13.500;2022-07-12T11:53:05;29.60;90.90
13835;DHT22;6988;52.614;13.500;2022-07-12T11:58:05;30.40;88.60
13835;DHT22;6988;52.614;13.500;2022-07-12T12:03:00;31.20;85.60
13835;DHT22;6988;52.614;13.500;2022-07-12T12:07:52;31.50;85.50
13835;DHT22;6988;52.614;13.500;2022-07-12T12:12:45;31.00;85.10
13835;DHT22;6988;52.614;13.500;2022-07-12T12:17:43;30.70;82.90
13835;DHT22;6988;52.614;13.500;2022-07-12T12:22:38;30.30;85.20
13835;DHT22;6988;52.614;13.500;2022-07-12T12:27:30;30.50;85.30
13835;DHT22;6988;52.614;13.500;2022-07-12T12:32:23;30.50;82.10
13835;DHT22;6988;52.614;13.500;2022-07-12T12:37:14;30.20;84.10
13835;DHT22;6988;52.614;13.500;2022-07-12T12:42:07;30.50;84.80
13835;DHT22;6988;52.614;13.500;2022-07-12T12:47:06;30.80;83.60
13835;DHT22;6988;52.614;13.500;2022-07-12T12:52:15;30.60;81.90
13835;DHT22;6988;52.614;13.500;2022-07-12T12:57:08;30.50;82.90
13835;DHT22;6988;52.614;13.500;2022-07-12T13:02:01;31.00;79.60
13835;DHT22;6988;52.614;13.500;2022-07-12T13:06:54;30.80;79.40
13835;DHT22;6988;52.614;13.500;2022-07-12T13:11:46;30.10;81.30
13835;DHT22;6988;52.614;13.500;2022-07-12T13:16:39;29.50;82.20
13835;DHT22;6988;52.614;13.500;2022-07-12T13:21:31;29.50;83.30
13835;DHT22;6988;52.614;13.500;2022-07-12T13:26:22;29.60;82.90
13835;DHT22;6988;52.614;13.500;2022-07-12T13:31:14;29.90;83.40
13835;DHT22;6988;52.614;13.500;2022-07-12T13:36:08;30.50;81.60
13835;DHT22;6988;52.614;13.500;2022-07-12T13:40:59;30.60;80.00
13835;DHT22;6988;52.614;13.500;2022-07-12T13:45:51;30.80;81.40
13835;DHT22;6988;52.614;13.500;2022-07-12T13:50:43;31.30;78.70
13835;DHT22;6988;52.614;13.500;2022-07-12T13:55:36;31.60;77.80
13835;DHT22;6988;52.614;13.500;2022-07-12T14:00:28;31.20;77.90
13835;DHT22;6988;52.614;13.500;2022-07-12T14:05:20;31.10;78.10
13835;DHT22;6988;52.614;13.500;2022-07-12T14:10:12;31.50;78.60
13835;DHT22;6988;52.614;13.500;2022-07-12T14:15:07;31.80;76.00
13835;DHT22;6988;52.614;13.500;2022-07-12T14:20:10;31.40;76.10
13835;DHT22;6988;52.614;13.500;2022-07-12T14:25:05;30.60;77.50
13835;DHT22;6988;52.614;13.500;2022-07-12T14:29:58;29.70;78.00
13835;DHT22;6988;52.614;13.500;2022-07-12T14:34:52;29.20;81.60
13835;DHT22;6988;52.614;13.500;2022-07-12T14:39:43;29.30;81.00
13835;DHT22;6988;52.614;13.500;2022-07-12T14:44:35;29.20;81.30
13835;DHT22;6988;52.614;13.500;2022-07-12T14:49:27;29.50;82.90
13835;DHT22;6988;52.614;13.500;2022-07-12T14:54:21;30.00;82.50
13835;DHT22;6988;52.614;13.500;2022-07-12T14:59:12;30.20;81.60
13835;DHT22;6988;52.614;13.500;2022-07-12T15:04:04;30.20;81.10
13835;DHT22;6988;52.614;13.500;2022-07-12T15:08:56;30.10;80.20
13835;DHT22;6988;52.614;13.500;2022-07-12T15:13:49;29.70;79.70
13835;DHT22;6988;52.614;13.500;2022-07-12T15:18:41;29.30;82.20
13835;DHT22;6988;52.614;13.500;2022-07-12T15:23:33;29.10;82.50
13835;DHT22;6988;52.614;13.500;2022-07-12T15:28:25;29.00;81.60
13835;DHT22;6988;52.614;13.500;2022-07-12T15:33:20;28.80;81.60
13835;DHT22;6988;52.614;13.500;2022-07-12T15:38:12;28.70;82.30
13835;DHT22;6988;52.614;13.500;2022-07-12T15:43:04;29.00;84.20
13835;DHT22;6988;52.614;13.500;2022-07-12T15:47:56;29.30;81.30
13835;DHT22;6988;52.614;13.500;2022-07-12T15:52:49;29.10;80.90
13835;DHT22;6988;52.614;13.500;2022-07-12T15:57:59;28.70;83.20
13835;DHT22;6988;52.614;13.500;2022-07-12T16:02:51;28.70;83.40
13835;DHT22;6988;52.614;13.500;2022-07-12T16:07:44;28.90;83.00
13835;DHT22;6988;52.614;13.500;2022-07-12T16:12:39;28.90;83.60
13835;DHT22;6988;52.614;13.500;2022-07-12T16:17:31;29.10;82.70
13835;DHT22;6988;52.614;13.500;2022-07-12T16:22:22;28.90;80.60
13835;DHT22;6988;52.614;13.500;2022-07-12T16:27:16;28.60;82.10
13835;DHT22;6988;52.614;13.500;2022-07-12T16:32:09;28.40;83.20
13835;DHT22;6988;52.614;13.500;2022-07-12T16:37:01;28.30;82.80
13835;DHT22;6988;52.614;13.500;2022-07-12T16:41:53;28.10;83.70
13835;DHT22;6988;52.614;13.500;2022-07-12T16:46:45;27.90;84.50
13835;DHT22;6988;52.614;13.500;2022-07-12T16:51:38;27.80;85.10
13835;DHT22;6988;52.614;13.500;2022-07-12T16:56:31;27.60;84.60
13835;DHT22;6988;52.614;13.500;2022-07-12T17:01:23;27.60;85.20
13835;DHT22;6988;52.614;13.500;2022-07-12T17:06:16;27.40;86.60
13835;DHT22;6988;52.614;13.500;2022-07-12T17:11:10;27.20;85.60
13835;DHT22;6988;52.614;13.500;2022-07-12T17:16:04;27.00;85.80
13835;DHT22;6988;52.614;13.500;2022-07-12T17:20:57;26.90;86.50
13835;DHT22;6988;52.614;13.500;2022-07-12T17:25:48;26.80;86.50
13835;DHT22;6988;52.614;13.500;2022-07-12T17:30:41;26.80;86.90
13835;DHT22;6988;52.614;13.500;2022-07-12T17:35:35;26.50;87.80
13835;DHT22;6988;52.614;13.500;2022-07-12T17:40:29;26.40;87.90
13835;DHT22;6988;52.614;13.500;2022-07-12T17:45:21;26.30;89.10
13835;DHT22;6988;52.614;13.500;2022-07-12T17:50:14;26.30;90.00
13835;DHT22;6988;52.614;13.500;2022-07-12T17:55:08;26.20;90.20
13835;DHT22;6988;52.614;13.500;2022-07-12T18:00:01;26.00;90.50
13835;DHT22;6988;52.614;13.500;2022-07-12T18:04:55;25.90;91.30
13835;DHT22;6988;52.614;13.500;2022-07-12T18:09:48;25.70;90.80
13835;DHT22;6988;52.614;13.500;2022-07-12T18:14:40;25.60;90.90
13835;DHT22;6988;52.614;13.500;2022-07-12T18:19:35;25.40;91.30
13835;DHT22;6988;52.614;13.500;2022-07-12T18:24:27;25.30;91.80
13835;DHT22;6988;52.614;13.500;2022-07-12T18:29:20;25.20;92.10
13835;DHT22;6988;52.614;13.500;2022-07-12T18:34:12;25.00;92.50
13835;DHT22;6988;52.614;13.500;2022-07-12T18:39:03;24.90;92.80
13835;DHT22;6988;52.614;13.500;2022-07-12T18:43:56;24.80;93.40
13835;DHT22;6988;52.614;13.500;2022-07-12T18:48:49;24.60;93.60
13835;DHT22;6988;52.614;13.500;2022-07-12T18:53:41;24.50;94.10
13835;DHT22;6988;52.614;13.500;2022-07-12T18:58:32;24.30;94.90
13835;DHT22;6988;52.614;13.500;2022-07-12T19:03:24;24.10;94.80
13835;DHT22;6988;52.614;13.500;2022-07-12T19:08:17;23.90;95.20
13835;DHT22;6988;52.614;13.500;2022-07-12T19:13:09;23.80;96.20
13835;DHT22;6988;52.614;13.500;2022-07-12T19:18:01;23.60;98.00
13835;DHT22;6988;52.614;13.500;2022-07-12T19:22:53;23.40;99.50
13835;DHT22;6988;52.614;13.500;2022-07-12T19:27:46;23.30;99.70
13835;DHT22;6988;52.614;13.500;2022-07-12T19:32:38;23.20;99.90
13835;DHT22;6988;52.614;13.500;2022-07-12T19:37:30;23.10;99.90
13835;DHT22;6988;52.614;13.500;2022-07-12T19:42:22;22.90;99.90
13835;DHT22;6988;52.614;13.500;2022-07-12T19:47:15;22.80;99.90
13835;DHT22;6988;52.614;13.500;2022-07-12T19:52:07;22.60;99.90
13835;DHT22;6988;52.614;13.500;2022-07-12T19:56:59;22.50;99.90
13835;DHT22;6988;52.614;13.500;2022-07-12T20:01:51;22.40;99.90
13835;DHT22;6988;52.614;13.500;2022-07-12T20:06:44;22.20;99.90
13835;DHT22;6988;52.614;13.500;2022-07-12T20:11:38;22.10;99.90
13835;DHT22;6988;52.614;13.500;2022-07-12T20:16:30;22.00;99.90
13835;DHT22;6988;52.614;13.500;2022-07-12T20:21:21;21.80;99.90
13835;DHT22;6988;52.614;13.500;2022-07-12T20:26:15;21.70;99.90
13835;DHT22;6988;52.614;13.500;2022-07-12T20:31:07;21.50;99.90
13835;DHT22;6988;52.614;13.500;2022-07-12T20:35:58;21.40;99.90
13835;DHT22;6988;52.614;13.500;2022-07-12T20:40:51;21.20;99.90
13835;DHT22;6988;52.614;13.500;2022-07-12T20:45:55;21.10;99.90
13835;DHT22;6988;52.614;13.500;2022-07-12T20:50:47;21.00;99.90
13835;DHT22;6988;52.614;13.500;2022-07-12T20:55:39;20.90;99.90
13835;DHT22;6988;52.614;13.500;2022-07-12T21:00:31;20.80;99.90
13835;DHT22;6988;52.614;13.500;2022-07-12T21:05:24;20.70;99.90
13835;DHT22;6988;52.614;13.500;2022-07-12T21:10:16;20.60;99.90
13835;DHT22;6988;52.614;13.500;2022-07-12T21:15:08;20.50;99.90
13835;DHT22;6988;52.614;13.500;2022-07-12T21:20:00;20.40;99.90
13835;DHT22;6988;52.614;13.500;2022-07-12T21:24:53;20.30;99.90
13835;DHT22;6988;52.614;13.500;2022-07-12T21:29:45;20.20;99.90
13835;DHT22;6988;52.614;13.500;2022-07-12T21:34:37;20.10;99.90
13835;DHT22;6988;52.614;13.500;2022-07-12T21:39:28;20.10;99.90
13835;DHT22;6988;52.614;13.500;2022-07-12T21:44:21;20.00;99.90
13835;DHT22;6988;52.614;13.500;2022-07-12T21:49:13;19.90;99.90
13835;DHT22;6988;52.614;13.500;2022-07-12T21:54:06;19.80;99.90
13835;DHT22;6988;52.614;13.500;2022-07-12T21:58:57;19.70;99.90
13835;DHT22;6988;52.614;13.500;2022-07-12T22:03:50;19.60;99.90
13835;DHT22;6988;52.614;13.500;2022-07-12T22:08:42;19.50;99.90
13835;DHT22;6988;52.614;13.500;2022-07-12T22:13:34;19.40;99.90
13835;DHT22;6988;52.614;13.500;2022-07-12T22:18:26;19.40;99.90
13835;DHT22;6988;52.614;13.500;2022-07-12T22:23:19;19.30;99.90
13835;DHT22;6988;52.614;13.500;2022-07-12T22:28:10;19.20;99.90
13835;DHT22;6988;52.614;13.500;2022-07-12T22:33:02;19.20;99.90
13835;DHT22;6988;52.614;13.500;2022-07-12T22:37:54;19.10;99.90
13835;DHT22;6988;52.614;13.500;2022-07-12T22:42:47;19.10;99.90
13835;DHT22;6988;52.614;13.500;2022-07-12T22:47:39;19.00;99.90
13835;DHT22;6988;52.614;13.500;2022-07-12T22:52:30;19.00;99.90
13835;DHT22;6988;52.614;13.500;2022-07-12T22:57:22;18.90;99.90
13835;DHT22;6988;52.614;13.500;2022-07-12T23:02:15;18.80;99.90
13835;DHT22;6988;52.614;13.500;2022-07-12T23:07:07;18.60;99.90
13835;DHT22;6988;52.614;13.500;2022-07-12T23:11:59;18.60;99.90
13835;DHT22;6988;52.614;13.500;2022-07-12T23:16:51;18.40;99.90
13835;DHT22;6988;52.614;13.500;2022-07-12T23:21:44;18.20;99.90
13835;DHT22;6988;52.614;13.500;2022-07-12T23:26:36;18.20;99.90
13835;DHT22;6988;52.614;13.500;2022-07-12T23:31:28;18.00;99.90
13835;DHT22;6988;52.614;13.500;2022-07-12T23:36:19;17.90;99.90
13835;DHT22;6988;52.614;13.500;2022-07-12T23:41:12;17.70;99.90
13835;DHT22;6988;52.614;13.500;2022-07-12T23:46:06;17.70;99.90
13835;DHT22;6988;52.614;13.500;2022-07-12T23:50:57;17.60;99.90
13835;DHT22;6988;52.614;13.500;2022-07-12T23:55:49;17.50;99.90
